Petropavlovsk, Kazakhstan

6:51 AM ALMT on July 24, 2014 (GMT +0600)
Petropavlosk South Airpor (UACP) Elev 466 ft | 54.77 °N, 69.18 °E | Change Station

Current weather conditions updated 13 hours ago

Fog
Fog
49 °F
Feels Like 49 °F
N
9
Wind Variable Wind from WNW
Gusts mph

Today is forecast to be nearly the same temperature as yesterday. Showers ending by midday.

Today
High -- | Low -- °F
--% Chance of Precip.
Yesterday
High -- | Low -- °F
Precip. -- in
5:18 AM 9:39 PM
Waning Crescent, 8% visible
Pressure 29.24 in
Visibility 6.2 miles
Clouds Mostly Cloudy 2500 ft
Mostly Cloudy 10000 ft
Dew Point 48 °F
Humidity 94%
Rainfall 0.00 in
Snow Depth Not available.
UV 2 out of 12
Pollen Not available.
Air Quality Not available.
Flu Activity Not available.
METAR UACP 231130Z 23006MPS 9999 BKN025CB BKN100 17/12 Q0990 R23/2/0556 NOSIG RMK QFE730/0974

More Conditions Fewer Conditions

Pressure 29.24 in
Visibility 6.2 miles
Clouds Mostly Cloudy 2500 ft
Mostly Cloudy 10000 ft
Dew Point 48 °F
Humidity 94%
Rainfall 0.00 in
Snow Depth Not available.
UV 2 out of 12
Pollen Not available.
Air Quality Not available.
Flu Activity Not available.
METAR UACP 231130Z 23006MPS 9999 BKN025CB BKN100 17/12 Q0990 R23/2/0556 NOSIG RMK QFE730/0974

More Conditions Fewer Conditions

10-Day Weather Forecast

Almanac

Astronomy

Jul. 24, 2014 Rise Set
Actual Time 5:18 AM ALMT 9:39 PM ALMT
Civil Twilight 4:29 AM ALMT 10:28 PM ALMT
Nautical Twilight 3:13 AM ALMT 11:43 PM ALMT
Astronomical Twilight 2:02 AM ALMT 12:57 AM ALMT
Moon 3:09 AM ALMT 7:30 PM ALMT
Length of Visible Light 17h 58m
Length of Day
16h 21m
Tomorrow will be 3m 15s shorter.
Waning Crescent, 8% of the Moon is Illuminated
Jul 23
Waning Crescent
Jul 26
New
Aug 3
First Quarter
Aug 10
Full
Aug 17
Last Quarter

Yesterday's Extremes

Country Highs Country Lows

Community

WunderPhotos

Upload Photos

1,736,822 photos uploaded!

Nearby

Snow Depth

Not available.

Earthquake Activity

City Distance Mag. Time & Date
No recent earthquake activity has been reported nearby.
Minimum magnitude displayed is 2.5.

Coastal Water Temperatures

Place Temperature
No Stations Reporting

Nearby Weather Stations

There are no personal weather stations in this area.